P&o Nedlloyd Pantanal — DDIZ — position and weather

sailwx.info

Track history (hours):
 
Tides and Currents Weather Stations Pressure Air Temp Water Temp Dewpoint Dewpoint Depression Visibility Wind Speed Wind Dir Waves Ship Positions

P&o Nedlloyd Pantanal

Last reported at 2015-Aug-08 14:33 UTC. Time now 2015-Aug-30 13:58 UTC.
Position N 01°08' E 103°46'.
Warning: this ship's position is 21 days out of date.

Length 207 m; draft 10.9 m.

Type: Ship (hazmat cat A). MMSI: 218646000.

Date/timePositionNaut miles runAvg speedWind from/ knotsBaromVisibWave heightAir tempDewpointWater temp
2015-Aug-08 14:33N 01°08' E 103°46'14816.4
2015-Aug-08 05:33N 02°24' E 101°39'3416.8
2015-Aug-08 03:33N 02°44' E 101°12'13 6.5
2015-Aug-08 01:33N 02°56' E 101°18'0 0.0
2015-Aug-08 00:12N 02°56' E 101°18'0 0.0
2015-Aug-07 22:32N 02°56' E 101°18'0 0.0
2015-Aug-07 19:32N 02°56' E 101°18'0 0.0
2015-Aug-07 17:32N 02°56' E 101°18'0 0.0
2015-Aug-07 15:31N 02°56' E 101°18'0 0.0
2015-Aug-07 13:28N 02°56' E 101°18'0 0.0
2015-Aug-07 11:34N 02°56' E 101°18'0 0.0
2015-Aug-07 10:24N 02°56' E 101°18'0 0.0
2015-Aug-07 08:33N 02°56' E 101°18'0 0.0
2015-Aug-07 05:33N 02°56' E 101°18'0 0.0
2015-Aug-07 04:32N 02°56' E 101°18'0 0.0
2015-Aug-07 03:23N 02°56' E 101°18'0 0.0
2015-Aug-07 01:23N 02°56' E 101°18'0 0.0
2015-Aug-06 23:31N 02°56' E 101°18'0 0.0
2015-Aug-06 22:31N 02°56' E 101°18'0 0.0
2015-Aug-06 20:31N 02°56' E 101°18'0 0.2
2015-Aug-06 17:33N 02°56' E 101°17'9 4.4
2015-Aug-06 15:31N 02°47' E 101°16'0 0.1
2015-Aug-06 13:33N 02°47' E 101°16'0 0.0
2015-Aug-06 09:30N 02°47' E 101°16'0 0.0
2015-Aug-06 07:33N 02°47' E 101°16'2 0.6
2015-Aug-06 04:33N 02°46' E 101°15'9 8.9
2015-Aug-06 03:33N 02°45' E 101°06'1110.9
2015-Aug-06 02:33N 02°51' E 100°57'2211.0
2015-Aug-06 00:32N 03°04' E 100°39'4511.1
2015-Aug-05 20:30N 03°37' E 100°08'2511.5
2015-Aug-05 18:22N 03°55' E 099°51'2411.3
2015-Aug-05 16:16N 04°13' E 099°36'1911.0
2015-Aug-05 14:31N 04°26' E 099°22'  
Track history (hours):
 
Tides and Currents Weather Stations Pressure Air Temp Water Temp Dewpoint Dewpoint Depression Visibility Wind Speed Wind Dir Waves Ship Positions

P&o Nedlloyd Pantanal

Last reported at 2015-Aug-08 14:33 UTC. Time now 2015-Aug-30 13:58 UTC.
Position N 01°08' E 103°46'.
Warning: this ship's position is 21 days out of date.

Length 207 m; draft 10.9 m.

Type: Ship (hazmat cat A). MMSI: 218646000.

Date/timePositionNaut miles runAvg speedWind from/ knotsBaromVisibWave heightAir tempDewpointWater temp
2015-Aug-08 14:33N 01°08' E 103°46'14816.4
2015-Aug-08 05:33N 02°24' E 101°39'3416.8
2015-Aug-08 03:33N 02°44' E 101°12'13 6.5
2015-Aug-08 01:33N 02°56' E 101°18'0 0.0
2015-Aug-08 00:12N 02°56' E 101°18'0 0.0
2015-Aug-07 22:32N 02°56' E 101°18'0 0.0
2015-Aug-07 19:32N 02°56' E 101°18'0 0.0
2015-Aug-07 17:32N 02°56' E 101°18'0 0.0
2015-Aug-07 15:31N 02°56' E 101°18'0 0.0
2015-Aug-07 13:28N 02°56' E 101°18'0 0.0
2015-Aug-07 11:34N 02°56' E 101°18'0 0.0
2015-Aug-07 10:24N 02°56' E 101°18'0 0.0
2015-Aug-07 08:33N 02°56' E 101°18'0 0.0
2015-Aug-07 05:33N 02°56' E 101°18'0 0.0
2015-Aug-07 04:32N 02°56' E 101°18'0 0.0
2015-Aug-07 03:23N 02°56' E 101°18'0 0.0
2015-Aug-07 01:23N 02°56' E 101°18'0 0.0
2015-Aug-06 23:31N 02°56' E 101°18'0 0.0
2015-Aug-06 22:31N 02°56' E 101°18'0 0.0
2015-Aug-06 20:31N 02°56' E 101°18'0 0.2
2015-Aug-06 17:33N 02°56' E 101°17'9 4.4
2015-Aug-06 15:31N 02°47' E 101°16'0 0.1
2015-Aug-06 13:33N 02°47' E 101°16'0 0.0
2015-Aug-06 09:30N 02°47' E 101°16'0 0.0
2015-Aug-06 07:33N 02°47' E 101°16'2 0.6
2015-Aug-06 04:33N 02°46' E 101°15'9 8.9
2015-Aug-06 03:33N 02°45' E 101°06'1110.9
2015-Aug-06 02:33N 02°51' E 100°57'2211.0
2015-Aug-06 00:32N 03°04' E 100°39'4511.1
2015-Aug-05 20:30N 03°37' E 100°08'2511.5
2015-Aug-05 18:22N 03°55' E 099°51'2411.3
2015-Aug-05 16:16N 04°13' E 099°36'1911.0
2015-Aug-05 14:31N 04°26' E 099°22'  

Dump ship's entire track history